createdAt,value
2022-08-17T04:43:41.183Z,41.03
2022-08-17T04:48:48.684Z,36.88
2022-08-17T04:53:58.394Z,42.40
2022-08-17T04:59:04.803Z,45.70
2022-08-17T05:04:25.157Z,44.33
2022-08-17T05:09:33.093Z,49.35
2022-08-17T05:14:35.648Z,41.92
2022-08-17T05:19:38.413Z,51.45
2022-08-17T05:24:43.679Z,49.05
2022-08-17T05:29:57.472Z,51.75
2022-08-17T05:35:00.866Z,52.20
2022-08-17T05:40:04.442Z,48.78
2022-08-17T05:45:09.626Z,49.08
2022-08-17T05:50:27.080Z,43.70
2022-08-17T05:55:37.407Z,43.30
2022-08-17T06:00:54.232Z,37.88
2022-08-17T06:06:15.087Z,38.38
2022-08-17T06:11:29.549Z,35.45
2022-08-17T06:16:37.475Z,37.08
2022-08-17T06:21:44.584Z,38.33
2022-08-17T06:26:48.056Z,38.88
2022-08-17T06:31:51.947Z,32.30
2022-08-17T06:37:04.246Z,30.65
2022-08-17T06:42:54.716Z,27.58
2022-08-17T06:48:13.768Z,21.80
2022-08-17T06:53:28.007Z,32.92
2022-08-17T06:58:32.425Z,21.90
2022-08-17T07:03:41.790Z,22.10
2022-08-17T07:09:06.289Z,16.75
2022-08-17T07:14:43.973Z,16.77
2022-08-17T07:19:50.972Z,14.75
2022-08-17T07:25:01.188Z,18.63
2022-08-17T07:30:25.894Z,11.93
2022-08-17T07:35:37.579Z,12.40
2022-08-17T07:41:05.411Z,14.40
2022-08-17T07:46:29.998Z,16.00
2022-08-17T07:51:39.481Z,19.88
2022-08-17T07:56:55.260Z,13.63
2022-08-17T08:01:58.218Z,10.93
2022-08-17T08:07:07.947Z,14.07
2022-08-17T08:12:30.577Z,11.68
2022-08-17T08:17:53.341Z,10.88
2022-08-17T08:23:33.877Z,12.15
2022-08-17T08:28:57.179Z,13.65
2022-08-17T08:34:47.360Z,14.00
2022-08-17T08:39:54.553Z,15.15
2022-08-17T08:45:13.107Z,13.00
2022-08-17T08:50:37.291Z,14.77
2022-08-17T08:55:53.054Z,16.52
2022-08-17T09:00:58.431Z,8.95
2022-08-17T09:06:37.588Z,11.20
2022-08-17T09:12:03.658Z,17.58
2022-08-17T09:17:14.927Z,14.23
2022-08-17T09:22:36.512Z,12.68
2022-08-17T09:28:06.030Z,12.20
2022-08-17T09:33:11.713Z,9.67
2022-08-17T09:38:35.457Z,8.65
2022-08-17T09:43:52.964Z,14.38
2022-08-17T09:49:10.649Z,7.43
2022-08-17T09:54:40.860Z,10.77
2022-08-17T09:59:53.610Z,16.38
2022-08-17T10:05:28.324Z,10.05
2022-08-17T10:10:56.448Z,16.55
2022-08-17T10:16:37.615Z,9.10
2022-08-17T10:27:11.638Z,14.25
2022-08-17T10:32:32.311Z,10.85
2022-08-17T10:43:31.516Z,13.98
2022-08-17T10:48:38.089Z,10.38
2022-08-17T10:53:43.668Z,8.25
2022-08-17T10:58:54.170Z,13.43
2022-08-17T11:09:17.253Z,8.35
2022-08-17T11:14:35.687Z,10.83
2022-08-17T11:19:44.230Z,10.32
2022-08-17T11:24:51.376Z,9.60
2022-08-17T11:30:06.748Z,13.90
2022-08-17T11:35:47.269Z,12.85
2022-08-17T11:46:25.128Z,14.13
2022-08-17T11:52:04.332Z,10.02
2022-08-17T11:57:25.539Z,9.23
2022-08-17T12:02:32.586Z,12.60
2022-08-17T12:07:43.647Z,11.35
2022-08-17T12:12:50.341Z,15.50
2022-08-17T12:17:55.081Z,11.40
2022-08-17T12:23:17.413Z,10.88
2022-08-17T12:28:29.086Z,11.68
2022-08-17T12:33:32.320Z,9.20
2022-08-17T12:38:37.775Z,8.13
2022-08-17T12:43:40.454Z,13.18
2022-08-17T12:48:59.704Z,15.65
2022-08-17T12:54:02.975Z,7.80
2022-08-17T12:59:07.235Z,11.20
2022-08-17T13:04:16.192Z,11.32
2022-08-17T13:09:39.936Z,10.02
2022-08-17T13:14:46.525Z,8.00
2022-08-17T13:19:51.113Z,13.18
2022-08-17T13:24:58.169Z,14.43
2022-08-17T13:30:11.857Z,12.35
2022-08-17T13:35:39.230Z,10.20
2022-08-17T13:40:53.311Z,10.93
2022-08-17T13:46:08.920Z,10.38
2022-08-17T13:51:21.294Z,11.68
2022-08-17T13:56:45.323Z,14.30
2022-08-17T14:01:53.840Z,16.50
2022-08-17T14:07:05.423Z,12.93
2022-08-17T14:12:13.492Z,13.82
2022-08-17T14:17:16.303Z,15.13
2022-08-17T14:22:23.812Z,12.00
2022-08-17T14:27:28.271Z,13.88
2022-08-17T14:32:34.624Z,11.77
2022-08-17T14:37:37.449Z,9.98
2022-08-17T14:42:43.024Z,10.25
2022-08-17T14:47:46.816Z,9.48
2022-08-17T14:52:49.792Z,20.65
2022-08-17T14:57:52.642Z,12.68
2022-08-17T15:02:58.597Z,10.95
2022-08-17T15:08:02.870Z,11.40
2022-08-17T15:13:15.863Z,9.75
2022-08-17T15:18:18.787Z,15.02
2022-08-17T15:23:24.411Z,8.27
2022-08-17T15:28:27.045Z,8.25
2022-08-17T15:33:31.133Z,9.85
2022-08-17T15:38:36.904Z,12.80
2022-08-17T15:43:39.528Z,9.32
2022-08-17T15:48:44.741Z,10.43
2022-08-17T15:53:51.224Z,12.20
2022-08-17T15:58:55.442Z,9.00
2022-08-17T16:04:06.764Z,11.10
2022-08-17T16:09:09.967Z,6.65
2022-08-17T16:14:13.565Z,11.30
2022-08-17T16:19:17.213Z,11.18
2022-08-17T16:24:19.924Z,11.38
2022-08-17T16:29:22.773Z,7.38
2022-08-17T16:34:25.448Z,11.38
2022-08-17T16:39:29.440Z,10.80
2022-08-17T16:44:32.725Z,7.93
2022-08-17T16:49:38.135Z,7.35
2022-08-17T16:54:45.999Z,9.38
2022-08-17T16:59:51.564Z,15.85
2022-08-17T17:05:28.533Z,10.65
2022-08-17T17:10:43.616Z,11.68
2022-08-17T17:15:57.679Z,12.23
2022-08-17T17:21:01.266Z,12.57
2022-08-17T17:26:27.451Z,13.23
2022-08-17T17:31:40.025Z,9.50
2022-08-17T17:36:48.577Z,13.10
2022-08-17T17:41:58.162Z,24.10
2022-08-17T17:47:03.223Z,14.32
2022-08-17T17:52:28.451Z,17.60
2022-08-17T17:57:57.978Z,11.18
2022-08-17T18:03:09.492Z,17.15
2022-08-17T18:08:49.993Z,14.07
2022-08-17T18:14:35.681Z,15.40
2022-08-17T18:19:40.109Z,12.23
2022-08-17T18:24:46.744Z,12.30
2022-08-17T18:29:53.315Z,11.73
2022-08-17T18:35:10.175Z,13.43
2022-08-17T18:40:19.577Z,16.73
2022-08-17T18:45:48.763Z,10.90
2022-08-17T18:50:54.110Z,12.38
2022-08-17T18:56:16.930Z,12.45
2022-08-17T19:01:21.390Z,13.52
2022-08-17T19:06:31.539Z,13.07
2022-08-17T19:11:35.877Z,9.60
2022-08-17T19:16:47.126Z,16.85
2022-08-17T19:27:20.839Z,10.73
2022-08-17T19:32:32.091Z,10.93
2022-08-17T19:38:00.863Z,19.77
2022-08-17T19:43:12.897Z,14.30
2022-08-17T19:48:37.420Z,12.20
2022-08-17T19:54:06.358Z,15.50
2022-08-17T19:59:21.204Z,14.13
2022-08-17T20:04:32.630Z,12.60
2022-08-17T20:09:44.033Z,15.65
2022-08-17T20:15:18.748Z,14.27
2022-08-17T20:20:21.431Z,14.88
2022-08-17T20:25:32.562Z,9.90
2022-08-17T20:30:40.973Z,14.60
2022-08-17T20:36:00.673Z,16.75
2022-08-17T20:41:04.017Z,13.75
2022-08-17T20:46:26.802Z,12.80
2022-08-17T20:52:01.429Z,13.55
2022-08-17T20:57:06.775Z,11.68
2022-08-17T21:02:22.577Z,18.17
2022-08-17T21:07:43.019Z,17.13
2022-08-17T21:12:51.566Z,16.67
2022-08-17T21:18:01.078Z,23.75
2022-08-17T21:23:16.345Z,22.13
2022-08-17T21:29:00.242Z,21.45
2022-08-17T21:34:16.197Z,21.65
2022-08-17T21:39:33.081Z,15.18
2022-08-17T21:44:43.058Z,20.02
2022-08-17T21:49:45.778Z,23.13
2022-08-17T21:54:57.643Z,19.10
2022-08-17T22:00:04.988Z,19.63
2022-08-17T22:05:11.847Z,14.27
2022-08-17T22:10:49.121Z,24.00
2022-08-17T22:16:15.343Z,22.15
2022-08-17T22:21:30.941Z,18.10
2022-08-17T22:27:00.423Z,22.15
2022-08-17T22:32:03.702Z,24.38
2022-08-17T22:37:28.059Z,25.35
2022-08-17T22:42:31.293Z,20.58
2022-08-17T22:47:48.605Z,14.38
2022-08-17T22:53:18.889Z,19.45
2022-08-17T22:58:43.489Z,17.33
2022-08-17T23:04:06.769Z,22.25
2022-08-17T23:09:09.577Z,20.17
2022-08-17T23:14:14.552Z,23.33
2022-08-17T23:19:21.865Z,14.05
2022-08-17T23:24:28.012Z,18.75
2022-08-17T23:29:30.657Z,15.35
2022-08-17T23:34:33.565Z,16.33
2022-08-17T23:39:36.449Z,17.85
2022-08-17T23:44:43.684Z,19.48
2022-08-17T23:49:46.336Z,17.20
2022-08-17T23:54:49.569Z,15.85
2022-08-17T23:59:52.355Z,14.88
